createdAt,value
2019-01-21T00:01:47.648Z,80.22
2019-01-21T00:04:17.387Z,80.31
2019-01-21T00:06:46.178Z,80.64
2019-01-21T00:09:14.966Z,81.20
2019-01-21T00:11:43.767Z,81.03
2019-01-21T00:14:12.572Z,80.69
2019-01-21T00:16:41.381Z,81.59
2019-01-21T00:19:10.170Z,81.58
2019-01-21T00:21:39.805Z,81.86
2019-01-21T00:24:08.803Z,82.13
2019-01-21T00:26:37.670Z,81.58
2019-01-21T00:29:06.475Z,81.71
2019-01-21T00:31:35.831Z,81.61
2019-01-21T00:34:05.558Z,81.70
2019-01-21T00:36:34.390Z,81.92
2019-01-21T00:39:03.210Z,81.79
2019-01-21T00:41:32.016Z,82.19
2019-01-21T00:44:02.497Z,82.57
2019-01-21T00:46:31.309Z,82.31
2019-01-21T00:49:01.659Z,82.37
2019-01-21T00:51:30.427Z,82.13
2019-01-21T00:53:59.761Z,82.20
2019-01-21T00:56:28.620Z,82.16
2019-01-21T00:58:57.415Z,81.82
2019-01-21T01:01:26.711Z,82.54
2019-01-21T01:03:55.972Z,82.33
2019-01-21T01:06:24.740Z,81.71
2019-01-21T01:08:53.522Z,82.37
2019-01-21T01:11:22.867Z,81.73
2019-01-21T01:13:51.659Z,82.00
2019-01-21T01:16:21.570Z,82.54
2019-01-21T01:18:50.355Z,82.75
2019-01-21T01:21:19.214Z,83.30
2019-01-21T01:23:49.054Z,83.28
2019-01-21T01:26:21.148Z,83.33
2019-01-21T01:28:49.992Z,83.24
2019-01-21T01:31:18.804Z,83.45
2019-01-21T01:33:47.635Z,83.23
2019-01-21T01:36:17.091Z,83.34
2019-01-21T01:38:45.867Z,83.08
2019-01-21T01:41:14.677Z,83.52
2019-01-21T01:43:44.487Z,83.49
2019-01-21T01:46:13.287Z,83.25
2019-01-21T01:48:42.089Z,82.86
2019-01-21T01:51:10.879Z,83.57
2019-01-21T01:53:40.433Z,83.40
2019-01-21T01:56:10.135Z,83.81
2019-01-21T01:58:38.923Z,83.00
2019-01-21T02:01:07.731Z,83.54
2019-01-21T02:03:36.519Z,83.77
2019-01-21T02:06:05.310Z,83.79
2019-01-21T02:08:34.143Z,83.90
2019-01-21T02:11:03.396Z,83.48
2019-01-21T02:13:33.302Z,83.49
2019-01-21T02:16:02.105Z,83.96
2019-01-21T02:18:30.959Z,83.49
2019-01-21T02:21:02.231Z,83.53
2019-01-21T02:23:35.341Z,83.72
2019-01-21T02:26:06.144Z,84.05
2019-01-21T02:28:49.692Z,84.25
2019-01-21T02:31:34.304Z,84.20
2019-01-21T02:34:13.923Z,83.95
2019-01-21T02:37:57.185Z,84.65
2019-01-21T02:40:42.628Z,83.61
2019-01-21T02:45:30.220Z,83.97
2019-01-21T02:48:09.134Z,83.57
2019-01-21T02:50:51.716Z,84.28
2019-01-21T02:53:30.843Z,83.46
2019-01-21T02:56:23.814Z,83.40
2019-01-21T02:59:34.042Z,84.17
2019-01-21T03:02:23.325Z,84.41
2019-01-21T03:06:03.665Z,84.42
2019-01-21T03:08:43.233Z,83.54
2019-01-21T03:11:31.018Z,83.67
2019-01-21T03:14:10.743Z,84.21
2019-01-21T03:17:25.136Z,83.89
2019-01-21T03:20:04.595Z,84.01
2019-01-21T03:22:50.167Z,83.99
2019-01-21T03:25:30.530Z,84.58
2019-01-21T03:28:10.679Z,84.87
2019-01-21T03:30:53.445Z,83.87
2019-01-21T03:33:49.260Z,84.78
2019-01-21T03:36:46.853Z,83.84
2019-01-21T03:39:25.717Z,84.95
2019-01-21T03:42:32.587Z,83.98
2019-01-21T03:47:14.406Z,84.06
2019-01-21T03:51:03.671Z,84.25
2019-01-21T03:53:48.746Z,84.58
2019-01-21T03:56:34.020Z,84.92
2019-01-21T03:59:13.797Z,84.71
2019-01-21T04:02:53.325Z,85.37
2019-01-21T04:05:34.123Z,84.42
2019-01-21T04:08:21.020Z,84.78
2019-01-21T04:10:59.476Z,85.67
2019-01-21T04:14:13.637Z,85.48
2019-01-21T04:16:53.763Z,85.66
2019-01-21T04:19:34.266Z,85.75
2019-01-21T04:22:35.844Z,85.96
2019-01-21T04:25:12.026Z,84.98
2019-01-21T04:27:59.411Z,85.77
2019-01-21T04:30:39.604Z,85.92
2019-01-21T04:33:16.268Z,86.12
2019-01-21T04:35:57.006Z,86.57
2019-01-21T04:38:37.398Z,86.34
2019-01-21T04:41:16.501Z,86.04
2019-01-21T04:44:00.417Z,86.25
2019-01-21T04:46:40.291Z,85.50
2019-01-21T04:49:34.675Z,85.51
2019-01-21T04:52:49.740Z,85.92
2019-01-21T04:56:02.966Z,85.45
2019-01-21T04:58:48.923Z,85.73
2019-01-21T05:01:33.740Z,85.59
2019-01-21T05:04:14.507Z,86.03
2019-01-21T05:06:57.216Z,85.19
2019-01-21T05:09:44.227Z,85.60
2019-01-21T05:12:57.350Z,86.06
2019-01-21T05:15:39.773Z,86.33
2019-01-21T05:19:24.380Z,85.68
2019-01-21T05:22:13.962Z,85.56
2019-01-21T05:25:00.464Z,85.85
2019-01-21T05:27:39.082Z,86.94
2019-01-21T05:30:23.800Z,86.24
2019-01-21T05:33:03.020Z,86.87
2019-01-21T05:36:44.982Z,86.20
2019-01-21T05:39:22.817Z,85.75
2019-01-21T05:42:10.538Z,86.65
2019-01-21T05:44:53.898Z,86.87
2019-01-21T05:47:37.407Z,86.93
2019-01-21T05:50:16.499Z,87.11
2019-01-21T05:52:59.481Z,87.16
2019-01-21T05:55:42.250Z,86.62
2019-01-21T06:00:33.595Z,86.92
2019-01-21T06:03:14.479Z,87.77
2019-01-21T06:06:16.755Z,87.60
2019-01-21T06:09:01.346Z,87.64
2019-01-21T06:11:45.215Z,86.61
2019-01-21T06:14:24.798Z,86.61
2019-01-21T06:17:21.860Z,87.16
2019-01-21T06:19:58.914Z,87.79
2019-01-21T06:24:47.442Z,87.47
2019-01-21T06:27:26.905Z,86.52
2019-01-21T06:30:07.623Z,86.26
2019-01-21T06:32:52.126Z,86.09
2019-01-21T06:36:02.917Z,86.35
2019-01-21T06:38:51.448Z,87.10
2019-01-21T06:41:32.014Z,86.30
2019-01-21T06:45:19.400Z,86.60
2019-01-21T06:51:08.121Z,86.75
2019-01-21T06:53:48.391Z,86.73
2019-01-21T06:57:20.964Z,86.21
2019-01-21T07:02:03.664Z,86.12
2019-01-21T07:04:58.379Z,87.08
2019-01-21T07:07:38.653Z,86.23
2019-01-21T07:12:30.655Z,87.89
2019-01-21T07:16:13.026Z,87.95
2019-01-21T07:18:53.144Z,87.69
2019-01-21T07:21:33.239Z,88.71
2019-01-21T07:24:28.460Z,88.82
2019-01-21T07:27:26.174Z,88.28
2019-01-21T07:30:08.802Z,89.14
2019-01-21T07:32:47.428Z,89.08
2019-01-21T07:35:26.104Z,88.90
2019-01-21T07:38:07.869Z,88.04
2019-01-21T07:40:49.948Z,88.21
2019-01-21T07:43:30.121Z,87.66
2019-01-21T07:46:10.582Z,88.29
2019-01-21T07:50:59.191Z,87.88
2019-01-21T07:54:42.056Z,87.33
2019-01-21T07:57:28.743Z,88.21
2019-01-21T08:00:07.485Z,88.17
2019-01-21T08:02:58.057Z,88.42
2019-01-21T08:06:07.427Z,87.50
2019-01-21T08:08:44.253Z,87.75
2019-01-21T08:11:20.611Z,87.89
2019-01-21T08:14:20.778Z,87.63
2019-01-21T08:17:08.420Z,86.87
2019-01-21T08:20:04.266Z,86.74
2019-01-21T08:26:54.547Z,87.28
2019-01-21T08:29:41.030Z,86.22
2019-01-21T08:32:26.691Z,86.85
2019-01-21T08:35:11.604Z,86.36
2019-01-21T08:38:15.542Z,86.46
2019-01-21T08:41:26.802Z,86.49
2019-01-21T08:44:07.619Z,86.43
2019-01-21T08:47:52.638Z,86.36
2019-01-21T08:50:37.245Z,86.68
2019-01-21T08:53:21.784Z,86.41
2019-01-21T08:56:16.842Z,86.32
2019-01-21T08:59:11.047Z,87.20
2019-01-21T09:01:48.699Z,86.58
2019-01-21T09:04:30.463Z,87.37
2019-01-21T09:07:13.164Z,87.13
2019-01-21T09:09:53.172Z,86.92
2019-01-21T09:14:38.844Z,86.54
2019-01-21T09:18:22.397Z,86.83
2019-01-21T09:21:10.120Z,86.52
2019-01-21T09:23:53.409Z,86.41
2019-01-21T09:26:35.737Z,85.99
2019-01-21T09:29:15.705Z,86.19
2019-01-21T09:32:02.156Z,85.57
2019-01-21T09:34:57.443Z,85.59
2019-01-21T09:37:39.065Z,85.90
2019-01-21T09:40:20.292Z,85.42
2019-01-21T09:42:59.939Z,84.90
2019-01-21T09:45:48.513Z,85.15
2019-01-21T09:48:16.353Z,84.89
2019-01-21T09:50:45.158Z,85.08
2019-01-21T09:53:13.976Z,84.34
2019-01-21T09:55:44.915Z,83.58
2019-01-21T09:58:12.816Z,83.28
2019-01-21T10:00:41.595Z,83.84
2019-01-21T10:03:10.390Z,82.39
2019-01-21T10:05:39.304Z,82.16
2019-01-21T10:08:47.638Z,81.96
2019-01-21T10:11:39.096Z,81.62
2019-01-21T10:14:38.493Z,81.76
2019-01-21T10:17:17.391Z,81.03
2019-01-21T10:19:56.261Z,81.21
2019-01-21T10:23:44.677Z,80.10
2019-01-21T10:27:24.383Z,79.63
2019-01-21T10:30:11.035Z,79.24
2019-01-21T10:32:52.094Z,78.83
2019-01-21T10:36:32.999Z,78.48
2019-01-21T10:40:16.624Z,77.35
2019-01-21T10:42:55.555Z,77.08
2019-01-21T10:45:34.819Z,76.92
2019-01-21T10:48:13.551Z,75.89
2019-01-21T10:50:57.270Z,76.01
2019-01-21T10:54:38.851Z,75.17
2019-01-21T10:57:33.691Z,74.96
2019-01-21T11:00:13.995Z,74.34
2019-01-21T11:02:53.858Z,74.34
2019-01-21T11:05:38.348Z,74.10
2019-01-21T11:08:27.552Z,72.90
2019-01-21T11:11:10.127Z,73.41
2019-01-21T11:13:56.527Z,72.05
2019-01-21T11:17:08.632Z,72.07
2019-01-21T11:19:50.679Z,70.89
2019-01-21T11:22:36.054Z,70.38
2019-01-21T11:25:14.823Z,69.52
2019-01-21T11:28:23.220Z,70.46
2019-01-21T11:31:05.960Z,69.66
2019-01-21T11:33:43.888Z,68.86
2019-01-21T11:36:26.367Z,68.24
2019-01-21T11:39:07.477Z,68.29
2019-01-21T11:41:52.364Z,68.57
2019-01-21T11:44:32.429Z,69.42
2019-01-21T11:47:12.767Z,68.40
2019-01-21T11:50:10.327Z,68.39
2019-01-21T11:52:47.317Z,67.62
2019-01-21T11:55:24.783Z,67.39
2019-01-21T11:58:40.906Z,67.51
2019-01-21T12:01:56.183Z,66.50
2019-01-21T12:04:37.484Z,66.39
2019-01-21T12:07:17.359Z,66.25
2019-01-21T12:09:59.938Z,66.04
2019-01-21T12:12:37.422Z,65.96
2019-01-21T12:16:27.062Z,65.33
2019-01-21T12:20:17.065Z,65.23
2019-01-21T12:23:12.166Z,65.04
2019-01-21T12:25:49.903Z,64.71
2019-01-21T12:28:31.092Z,64.98
2019-01-21T12:31:41.629Z,64.38
2019-01-21T12:34:28.479Z,63.84
2019-01-21T12:37:22.811Z,64.12
2019-01-21T12:40:02.445Z,64.06
2019-01-21T12:43:45.299Z,63.63
2019-01-21T12:46:33.521Z,62.74
2019-01-21T12:49:19.178Z,62.90
2019-01-21T12:52:02.329Z,63.20
2019-01-21T12:54:57.830Z,62.45
2019-01-21T12:57:40.333Z,61.67
2019-01-21T13:00:20.133Z,61.89
2019-01-21T13:03:02.841Z,62.68
2019-01-21T13:05:42.805Z,61.60
2019-01-21T13:08:20.406Z,61.30
2019-01-21T13:11:00.912Z,62.01
2019-01-21T13:15:44.490Z,62.49
2019-01-21T13:18:24.607Z,62.15
2019-01-21T13:21:05.011Z,61.65
2019-01-21T13:23:52.915Z,61.87
2019-01-21T13:26:38.395Z,61.98
2019-01-21T13:29:18.980Z,61.67
2019-01-21T13:31:57.389Z,61.26
2019-01-21T13:36:40.894Z,61.51
2019-01-21T13:39:22.003Z,61.12
2019-01-21T13:42:01.879Z,61.37
2019-01-21T13:45:17.602Z,60.91
2019-01-21T13:47:59.347Z,61.81
2019-01-21T13:50:45.939Z,61.46
2019-01-21T13:55:33.703Z,61.52
2019-01-21T13:59:14.355Z,61.44
2019-01-21T14:01:50.723Z,61.27
2019-01-21T14:04:30.285Z,61.27
2019-01-21T14:07:20.129Z,61.07
2019-01-21T14:11:36.144Z,61.43
2019-01-21T14:14:21.855Z,61.00
2019-01-21T14:17:16.647Z,61.72
2019-01-21T14:19:57.535Z,61.63
2019-01-21T14:22:45.192Z,61.44
2019-01-21T14:26:22.711Z,60.93
2019-01-21T14:29:06.371Z,59.99
2019-01-21T14:31:48.099Z,60.94
2019-01-21T14:34:35.882Z,61.28
2019-01-21T14:37:17.773Z,61.45
2019-01-21T14:40:10.311Z,61.77
2019-01-21T14:42:50.692Z,62.13
2019-01-21T14:45:32.156Z,61.82
2019-01-21T14:50:23.131Z,61.98
2019-01-21T14:53:06.058Z,62.07
2019-01-21T14:55:50.286Z,62.50
2019-01-21T14:58:29.239Z,62.00
2019-01-21T15:01:14.015Z,62.94
2019-01-21T15:04:55.685Z,62.32
2019-01-21T15:07:34.470Z,63.17
2019-01-21T15:10:23.919Z,63.11
2019-01-21T15:14:06.156Z,63.34
2019-01-21T15:18:54.334Z,63.07
2019-01-21T15:22:33.039Z,63.37
2019-01-21T15:25:16.777Z,63.95
2019-01-21T15:27:57.717Z,64.17
2019-01-21T15:30:39.277Z,64.62
2019-01-21T15:33:17.072Z,64.58
2019-01-21T15:36:28.752Z,65.22
2019-01-21T15:39:19.778Z,65.46
2019-01-21T15:42:00.510Z,65.30
2019-01-21T15:44:40.770Z,65.71
2019-01-21T15:47:19.407Z,66.06
2019-01-21T15:51:10.053Z,65.75
2019-01-21T15:53:53.212Z,66.03
2019-01-21T15:56:34.140Z,65.99
2019-01-21T15:59:15.900Z,65.84
2019-01-21T16:02:07.728Z,66.15
2019-01-21T16:05:24.617Z,66.42
2019-01-21T16:08:02.770Z,66.70
2019-01-21T16:10:45.443Z,67.17
2019-01-21T16:13:25.425Z,67.33
2019-01-21T16:18:11.846Z,67.21
2019-01-21T16:20:57.572Z,66.70
2019-01-21T16:23:38.292Z,67.65
2019-01-21T16:26:24.171Z,67.56
2019-01-21T16:29:58.590Z,68.06
2019-01-21T16:32:41.678Z,68.26
2019-01-21T16:36:20.938Z,67.67
2019-01-21T16:39:34.728Z,67.91
2019-01-21T16:42:14.430Z,67.87
2019-01-21T16:44:45.515Z,67.90
2019-01-21T16:47:14.320Z,69.20
2019-01-21T16:49:43.139Z,68.69
2019-01-21T16:52:11.930Z,68.53
2019-01-21T16:54:40.749Z,68.62
2019-01-21T16:57:09.531Z,69.57
2019-01-21T16:59:38.336Z,69.03
2019-01-21T17:02:07.151Z,70.04
2019-01-21T17:04:35.923Z,69.93
2019-01-21T17:07:04.739Z,69.51
2019-01-21T17:09:33.547Z,69.98
2019-01-21T17:12:02.340Z,70.16
2019-01-21T17:14:31.192Z,69.49
2019-01-21T17:17:00.002Z,69.55
2019-01-21T17:19:28.803Z,69.84
2019-01-21T17:21:57.638Z,71.04
2019-01-21T17:24:26.423Z,71.11
2019-01-21T17:26:55.227Z,71.01
2019-01-21T17:29:24.029Z,70.76
2019-01-21T17:31:53.426Z,72.03
2019-01-21T17:34:22.305Z,71.08
2019-01-21T17:36:51.109Z,71.08
2019-01-21T17:39:19.902Z,71.38
2019-01-21T17:41:48.742Z,71.95
2019-01-21T17:44:17.582Z,72.09
2019-01-21T17:46:46.371Z,72.77
2019-01-21T17:49:16.324Z,72.42
2019-01-21T17:51:45.455Z,72.26
2019-01-21T17:54:14.243Z,73.42
2019-01-21T17:56:43.039Z,72.51
2019-01-21T17:59:11.844Z,72.17
2019-01-21T18:01:40.640Z,73.27
2019-01-21T18:04:09.419Z,72.99
2019-01-21T18:06:38.255Z,72.99
2019-01-21T18:09:09.239Z,73.08
2019-01-21T18:11:41.411Z,73.24
2019-01-21T18:14:06.864Z,72.74
2019-01-21T18:16:35.679Z,73.15
2019-01-21T18:19:04.603Z,73.30
2019-01-21T18:21:33.422Z,73.96
2019-01-21T18:24:02.283Z,73.07
2019-01-21T18:26:31.130Z,74.07
2019-01-21T18:28:59.987Z,73.73
2019-01-21T18:31:28.809Z,74.00
2019-01-21T18:33:58.357Z,74.32
2019-01-21T18:36:27.147Z,73.91
2019-01-21T18:38:55.951Z,74.47
2019-01-21T18:41:24.744Z,73.64
2019-01-21T18:43:54.121Z,73.72
2019-01-21T18:46:22.915Z,73.97
2019-01-21T18:48:53.049Z,75.01
2019-01-21T18:51:22.502Z,74.80
2019-01-21T18:53:52.307Z,74.89
2019-01-21T18:56:21.108Z,75.17
2019-01-21T18:58:51.240Z,74.80
2019-01-21T19:01:20.088Z,74.54
2019-01-21T19:03:48.875Z,74.55
2019-01-21T19:06:17.675Z,75.59
2019-01-21T19:08:46.469Z,75.64
2019-01-21T19:11:15.264Z,74.97
2019-01-21T19:13:44.066Z,75.88
2019-01-21T19:16:13.539Z,75.65
2019-01-21T19:18:42.380Z,76.15
2019-01-21T19:21:11.179Z,76.22
2019-01-21T19:23:39.992Z,75.78
2019-01-21T19:26:09.510Z,75.82
2019-01-21T19:28:38.659Z,75.21
2019-01-21T19:31:07.458Z,76.39
2019-01-21T19:33:36.254Z,76.03
2019-01-21T19:36:05.050Z,75.53
2019-01-21T19:38:33.835Z,75.71
2019-01-21T19:41:02.630Z,75.97
2019-01-21T19:43:31.419Z,76.04
2019-01-21T19:46:00.236Z,76.44
2019-01-21T19:48:29.024Z,76.20
2019-01-21T19:50:57.826Z,76.70
2019-01-21T19:53:26.620Z,76.34
2019-01-21T19:55:55.416Z,76.21
2019-01-21T19:58:24.198Z,77.04
2019-01-21T20:00:53.020Z,76.37
2019-01-21T20:03:28.226Z,76.23
2019-01-21T20:05:57.933Z,77.07
2019-01-21T20:08:26.691Z,76.82
2019-01-21T20:10:55.487Z,77.17
2019-01-21T20:13:24.314Z,76.93
2019-01-21T20:15:53.119Z,77.02
2019-01-21T20:18:21.950Z,77.04
2019-01-21T20:20:50.751Z,77.31
2019-01-21T20:23:19.564Z,76.65
2019-01-21T20:25:48.347Z,77.49
2019-01-21T20:28:17.140Z,76.66
2019-01-21T20:30:45.935Z,77.09
2019-01-21T20:33:14.721Z,77.20
2019-01-21T20:35:43.515Z,77.24
2019-01-21T20:38:12.314Z,77.90
2019-01-21T20:40:41.106Z,77.29
2019-01-21T20:43:09.943Z,77.72
2019-01-21T20:45:38.822Z,77.41
2019-01-21T20:48:07.623Z,77.70
2019-01-21T20:50:36.504Z,77.25
2019-01-21T20:53:05.432Z,77.83
2019-01-21T20:55:34.288Z,77.64
2019-01-21T20:58:03.204Z,78.05
2019-01-21T21:00:32.904Z,77.42
2019-01-21T21:03:01.695Z,77.51
2019-01-21T21:05:30.733Z,77.29
2019-01-21T21:07:59.567Z,77.10
2019-01-21T21:10:28.355Z,77.75
2019-01-21T21:12:57.164Z,77.08
2019-01-21T21:15:29.167Z,77.22
2019-01-21T21:17:58.005Z,77.96
2019-01-21T21:20:26.809Z,77.66
2019-01-21T21:22:55.626Z,78.33
2019-01-21T21:25:24.431Z,78.39
2019-01-21T21:27:53.222Z,78.32
2019-01-21T21:30:24.343Z,78.04
2019-01-21T21:32:53.131Z,78.46
2019-01-21T21:35:21.939Z,77.87
2019-01-21T21:37:50.797Z,78.53
2019-01-21T21:40:20.058Z,78.32
2019-01-21T21:42:48.854Z,78.20
2019-01-21T21:45:18.323Z,78.01
2019-01-21T21:47:47.123Z,78.84
2019-01-21T21:50:18.379Z,78.73
2019-01-21T21:52:47.278Z,78.86
2019-01-21T21:55:16.094Z,78.30
2019-01-21T21:57:44.891Z,78.31
2019-01-21T22:00:16.669Z,78.68
2019-01-21T22:02:45.516Z,77.96
2019-01-21T22:05:14.322Z,78.35
2019-01-21T22:07:43.110Z,78.17
2019-01-21T22:10:13.781Z,78.72
2019-01-21T22:12:42.568Z,79.10
2019-01-21T22:15:13.587Z,79.27
2019-01-21T22:17:42.419Z,79.44
2019-01-21T22:20:14.523Z,78.67
2019-01-21T22:22:43.331Z,79.17
2019-01-21T22:25:12.171Z,79.48
2019-01-21T22:27:40.978Z,79.12
2019-01-21T22:30:13.686Z,78.87
2019-01-21T22:32:42.498Z,79.36
2019-01-21T22:35:11.274Z,80.04
2019-01-21T22:37:41.377Z,79.41
2019-01-21T22:40:12.735Z,79.51
2019-01-21T22:42:48.306Z,79.00
2019-01-21T22:45:17.886Z,79.03
2019-01-21T22:47:46.677Z,79.17
2019-01-21T22:50:15.552Z,78.92
2019-01-21T22:52:44.426Z,78.88
2019-01-21T22:55:14.060Z,79.14
2019-01-21T22:57:42.895Z,79.42
2019-01-21T23:00:22.612Z,79.50
2019-01-21T23:02:51.462Z,79.35
2019-01-21T23:05:20.264Z,78.86
2019-01-21T23:07:49.062Z,78.83
2019-01-21T23:10:17.884Z,78.73
2019-01-21T23:12:46.667Z,79.16
2019-01-21T23:15:15.471Z,79.69
2019-01-21T23:17:44.290Z,79.60
2019-01-21T23:20:13.088Z,79.50
2019-01-21T23:22:48.722Z,78.77
2019-01-21T23:25:10.731Z,79.64
2019-01-21T23:27:39.532Z,79.91
2019-01-21T23:30:10.640Z,80.22
2019-01-21T23:32:39.460Z,79.29
2019-01-21T23:35:08.280Z,79.43
2019-01-21T23:37:37.054Z,79.71
2019-01-21T23:40:05.958Z,80.14
2019-01-21T23:42:34.742Z,80.58
2019-01-21T23:45:04.982Z,80.07
2019-01-21T23:47:33.775Z,81.29
2019-01-21T23:50:02.590Z,80.91
2019-01-21T23:52:31.382Z,81.15
2019-01-21T23:55:00.205Z,81.12
2019-01-21T23:57:28.993Z,80.70
2019-01-21T23:59:57.780Z,80.45
